Flight Track Log - Related Links

Times and Time Zones

All times are in EDT time to prevent confusion due to time zone crossing. See the TAM8005 flight status page for this flight to view local times or setup timezone preferences in your user account.

Time Position Orientation Groundspeed Altitude Reporting Facility
EDT Latitude Longitude Course Direction KTS MPH feet Rate Location/Type
Fri 02:20:31 PM -34.5730 -58.3880 102° East 174 200 1,300  Level FlightAware ADS-B
Fri 02:21:25 PM -34.5520 -58.3540 53° Northeast 228 262 2,200 1,800 Climbing FlightAware ADS-B
Fri 02:21:41 PM -34.5230 -58.3300 34° Northeast 264 304 3,400 4,091 Climbing FlightAware ADS-B
Fri 02:22:09 PM -34.4940 -58.3080 32° Northeast 271 312 5,200 3,643 Climbing FlightAware ADS-B
Fri 02:22:37 PM -34.4650 -58.2850 33° Northeast 275 316 6,800 3,273 Climbing FlightAware ADS-B
Fri 02:23:04 PM -34.4330 -58.2610 32° Northeast 292 336 8,200 3,073 Climbing FlightAware ADS-B
Fri 02:23:18 PM -34.4150 -58.2580 North 293 337 8,900 3,150 Climbing FlightAware ADS-B
Fri 02:23:44 PM -34.3810 -58.2630 353° North 295 339 10,300 2,182 Climbing FlightAware ADS-B
Fri 02:24:24 PM -34.3220 -58.2730 352° North 342 394 11,300 2,083 Climbing FlightAware ADS-B
Fri 02:24:56 PM -34.2750 -58.2640 North 354 407 12,800 2,919 Climbing FlightAware ADS-B
Fri 02:25:38 PM -34.2070 -58.2300 22° Northeast 363 418 14,900 2,747 Climbing FlightAware ADS-B
Fri 02:26:19 PM -34.1480 -58.1860 32° Northeast 373 429 16,600 2,341 Climbing FlightAware ADS-B
Fri 02:27:00 PM -34.0890 -58.1350 36° Northeast 388 447 18,100 2,552 Climbing FlightAware ADS-B
Fri 02:27:46 PM -34.0210 -58.0760 36° Northeast 381 438 20,300 3,176 Climbing FlightAware ADS-B
Fri 02:28:25 PM -33.9680 -58.0290 36° Northeast 361 415 22,600 2,370 Climbing FlightAware ADS-B
Fri 02:29:07 PM -33.9110 -57.9790 36° Northeast 380 437 23,500 1,214 Climbing FlightAware ADS-B
Fri 02:29:49 PM -33.8470 -57.9240 36° Northeast 400 460 24,300 1,531 Climbing FlightAware ADS-B
Fri 02:30:45 PM -33.7630 -57.8500 36° Northeast 405 466 26,000 1,740 Climbing FlightAware ADS-B
Fri 02:31:29 PM -33.6960 -57.7920 36° Northeast 409 471 27,200 1,553 Climbing FlightAware ADS-B
Fri 02:32:10 PM -33.6310 -57.7360 36° Northeast 418 481 28,200 1,259 Climbing FlightAware ADS-B
Fri 02:32:50 PM -33.5680 -57.6810 36° Northeast 427 491 28,900 1,575 Climbing FlightAware ADS-B
Fri 02:33:30 PM -33.5040 -57.6270 35° Northeast 421 484 30,300 1,605 Climbing FlightAware ADS-B
Fri 02:34:16 PM -33.4320 -57.5630 37° Northeast 428 493 31,200 1,295 Climbing FlightAware ADS-B
Fri 02:34:58 PM -33.3630 -57.5040 36° Northeast 428 493 32,200 1,000 Climbing FlightAware ADS-B
Fri 02:35:40 PM -33.2950 -57.4460 35° Northeast 443 510 32,600 558 Climbing FlightAware ADS-B
Fri 02:36:24 PM -33.2200 -57.3820 36° Northeast 456 525 33,000 1,050 Climbing FlightAware ADS-B
Fri 02:37:00 PM -33.1580 -57.3290 36° Northeast 452 520 34,000 1,373 Climbing FlightAware ADS-B
Fri 02:37:47 PM -33.0980 -57.2780 35° Northeast 445 512 34,900 1,079 Climbing FlightAware ADS-B
Fri 02:38:29 PM -33.0080 -57.2010 36° Northeast 452 520 35,600 699 Climbing FlightAware ADS-B
Fri 02:39:30 PM -32.9020 -57.1110 35° Northeast 465 535 36,100 647 Climbing FlightAware ADS-B
Fri 02:40:48 PM -32.7680 -56.9970 36° Northeast 470 541 37,100 762 Climbing FlightAware ADS-B
Fri 02:41:36 PM -32.6810 -56.9240 35° Northeast 473 544 37,700 612 Climbing FlightAware ADS-B
Fri 02:42:26 PM -32.5950 -56.8520 35° Northeast 476 548 38,100 652 Climbing FlightAware ADS-B
Fri 02:43:08 PM -32.5130 -56.7830 35° Northeast 474 545 38,700 551 Climbing FlightAware ADS-B
Fri 02:44:04 PM -32.4120 -56.6980 35° Northeast 473 544 39,000 191 Climbing FlightAware ADS-B
Fri 02:44:42 PM -32.3520 -56.6490 35° Northeast 471 542 39,000  Level FlightAware ADS-B
Fri 02:45:28 PM -32.2660 -56.5760 36° Northeast 475 547 39,000  Level FlightAware ADS-B
Fri 02:46:11 PM -32.1890 -56.5120 35° Northeast 476 548 39,000  Level FlightAware ADS-B
Fri 02:46:53 PM -32.1320 -56.4650 35° Northeast 476 548 39,000  Level FlightAware ADS-B
Fri 02:47:43 PM -32.0290 -56.3800 35° Northeast 476 548 39,000  Level FlightAware ADS-B
Fri 02:48:24 PM -31.9660 -56.3280 35° Northeast 476 548 39,000  Level FlightAware ADS-B
Fri 02:49:14 PM -31.8550 -56.2360 35° Northeast 480 552 39,000  Level FlightAware ADS-B
Fri 02:49:50 PM -31.8040 -56.1940 35° Northeast 480 552 39,000  Level FlightAware ADS-B
Fri 02:50:28 PM -31.7450 -56.1450 35° Northeast 480 552 39,000  Level FlightAware ADS-B
Fri 02:51:12 PM -31.6770 -56.0890 35° Northeast 480 552 39,000  Level FlightAware ADS-B
Fri 02:51:58 PM -31.6060 -56.0310 35° Northeast 480 552 39,000  Level FlightAware ADS-B
Fri 02:52:36 PM -31.5470 -55.9830 35° Northeast 480 552 39,000  Level FlightAware ADS-B
Fri 02:53:26 PM -31.4700 -55.9190 35° Northeast 480 552 39,000  Level FlightAware ADS-B
Fri 02:54:00 PM -31.3340 -55.8100 34° Northeast 479 551 39,000  Level FlightAware ADS-B
Fri 02:54:57 PM -31.2560 -55.7460 35° Northeast 478 550 39,000  Level FlightAware ADS-B
Fri 02:55:56 PM -31.1220 -55.6370 35° Northeast 479 551 39,000  Level FlightAware ADS-B
Fri 02:56:40 PM -31.0480 -55.5770 35° Northeast 479 551 39,000  Level FlightAware ADS-B
Fri 02:57:22 PM -30.9820 -55.5250 34° Northeast 479 551 39,000  Level FlightAware ADS-B
Fri 02:58:00 PM -30.9230 -55.4790 34° Northeast 479 551 39,000  Level FlightAware ADS-B
Fri 02:58:46 PM -30.8130 -55.3880 35° Northeast 477 549 39,000  Level FlightAware ADS-B
Fri 02:59:28 PM -30.7350 -55.3250 35° Northeast 476 548 39,000  Level FlightAware ADS-B
Fri 03:00:02 PM -30.6730 -55.2760 34° Northeast 476 548 39,000  Level FlightAware ADS-B
Fri 03:01:02 PM -30.5690 -55.1850 37° Northeast 490 564 39,000  Level FlightAware ADS-B
Fri 03:01:48 PM -30.4970 -55.0940 47° Northeast 491 565 39,000  Level FlightAware ADS-B
Fri 03:02:31 PM -30.4340 -55.0150 47° Northeast 489 563 39,000  Level FlightAware ADS-B
Fri 03:03:27 PM -30.3480 -54.9070 47° Northeast 486 559 39,000  Level FlightAware ADS-B
Fri 03:04:06 PM -30.2860 -54.8300 47° Northeast 486 559 39,000  Level FlightAware ADS-B
Fri 03:04:50 PM -30.2180 -54.7460 47° Northeast 484 557 39,000  Level FlightAware ADS-B
Fri 03:05:24 PM -30.1670 -54.6820 47° Northeast 483 556 39,000  Level FlightAware ADS-B
Fri 03:06:10 PM -30.0970 -54.5950 47° Northeast 481 554 39,000  Level FlightAware ADS-B
Fri 03:06:56 PM -30.0270 -54.5080 47° Northeast 483 556 39,000  Level FlightAware ADS-B
Fri 03:07:38 PM -29.9630 -54.4290 47° Northeast 485 558 39,000  Level FlightAware ADS-B
Fri 03:08:20 PM -29.8980 -54.3490 47° Northeast 486 559 39,000  Level FlightAware ADS-B
Fri 03:09:04 PM -29.8330 -54.2690 47° Northeast 489 563 39,000  Level FlightAware ADS-B
Fri 03:09:42 PM -29.7720 -54.1940 47° Northeast 490 564 39,000  Level FlightAware ADS-B
Fri 03:10:24 PM -29.7070 -54.1140 47° Northeast 489 563 39,000  Level FlightAware ADS-B
Fri 03:11:41 PM -29.6090 -53.9940 47° Northeast 488 562 39,000  Level FlightAware ADS-B
Fri 03:12:23 PM -29.5260 -53.8940 46° Northeast 490 564 39,000  Level FlightAware ADS-B
Fri 03:13:03 PM -29.4650 -53.8190 47° Northeast 488 562 39,000  Level FlightAware ADS-B
Fri 03:13:43 PM -29.4000 -53.7400 47° Northeast 486 559 39,000  Level FlightAware ADS-B
Fri 03:14:28 PM -29.3300 -53.6550 47° Northeast 483 556 39,000  Level FlightAware ADS-B
Fri 03:15:20 PM -29.2480 -53.5570 46° Northeast 486 559 39,000  Level FlightAware ADS-B
Fri 03:16:10 PM -29.1710 -53.4630 47° Northeast 487 560 39,000  Level FlightAware ADS-B
Fri 03:16:48 PM -29.1120 -53.3930 46° Northeast 485 558 39,000  Level FlightAware ADS-B
Fri 03:17:31 PM -29.0470 -53.3140 47° Northeast 483 556 39,000  Level FlightAware ADS-B
Fri 03:18:14 PM -28.9790 -53.2330 46° Northeast 480 552 39,000  Level FlightAware ADS-B
Fri 03:18:52 PM -28.9210 -53.1640 46° Northeast 477 549 39,000 -71 Level FlightAware ADS-B
Fri 03:19:38 PM -28.8520 -53.0820 46° Northeast 478 550 38,900  Descending FlightAware ADS-B
Fri 03:20:18 PM -28.7910 -53.0080 47° Northeast 479 551 39,000 70 Climbing FlightAware ADS-B
Fri 03:21:04 PM -28.7190 -52.9220 46° Northeast 482 555 39,000  Level FlightAware ADS-B
Fri 03:21:44 PM -28.6580 -52.8500 46° Northeast 483 556 39,000  Level FlightAware ADS-B
Fri 03:22:22 PM -28.6000 -52.7810 46° Northeast 483 556 39,000 71 Level FlightAware ADS-B
Fri 03:23:08 PM -28.5280 -52.6960 46° Northeast 479 551 39,100  Climbing FlightAware ADS-B
Fri 03:23:52 PM -28.4610 -52.6170 46° Northeast 478 550 39,000 -70 Descending FlightAware ADS-B
Fri 03:24:34 PM -28.3960 -52.5400 46° Northeast 481 554 39,000  Level FlightAware ADS-B
Fri 03:25:32 PM -28.3350 -52.4680 46° Northeast 483 556 39,000 -229 Level FlightAware ADS-B
Fri 03:26:19 PM -28.2340 -52.3500 46° Northeast 478 550 38,600 -577 Descending FlightAware ADS-B
Fri 03:27:16 PM -28.1450 -52.2460 46° Northeast 480 552 38,000 -619 Descending FlightAware ADS-B
Fri 03:27:56 PM -28.0840 -52.1750 46° Northeast 485 558 37,600 -643 Descending FlightAware ADS-B
Fri 03:28:40 PM -28.0160 -52.0960 46° Northeast 485 558 37,100 -714 Descending FlightAware ADS-B
Fri 03:29:20 PM -27.9520 -52.0210 46° Northeast 480 552 36,600 -659 Descending FlightAware ADS-B
Fri 03:30:02 PM -27.8870 -51.9450 46° Northeast 479 551 36,200 -643 Descending FlightAware ADS-B
Fri 03:30:44 PM -27.8220 -51.8700 46° Northeast 482 555 35,700 -723 Descending FlightAware ADS-B
Fri 03:31:25 PM -27.7580 -51.7970 45° Northeast 485 558 35,200 -488 Descending FlightAware ADS-B
Fri 03:32:10 PM -27.6880 -51.7150 46° Northeast 478 550 35,000 -143 Descending FlightAware ADS-B
Fri 03:32:49 PM -27.6280 -51.6460 46° Northeast 479 551 35,000  Level FlightAware ADS-B
Fri 03:33:30 PM -27.5630 -51.5710 46° Northeast 484 557 35,000  Level FlightAware ADS-B
Fri 03:34:16 PM -27.4910 -51.4890 45° Northeast 486 559 35,000  Level FlightAware ADS-B
Fri 03:34:58 PM -27.4260 -51.4150 45° Northeast 489 563 35,000  Level FlightAware ADS-B
Fri 03:35:32 PM -27.3700 -51.3500 46° Northeast 493 567 35,000  Level FlightAware ADS-B
Fri 03:36:22 PM -27.2920 -51.2610 45° Northeast 494 568 35,000 65 Level FlightAware ADS-B
Fri 03:37:04 PM -27.2230 -51.1820 46° Northeast 490 564 35,100  Climbing FlightAware ADS-B
Fri 03:37:46 PM -27.1570 -51.1070 45° Northeast 485 558 35,000 -71 Descending FlightAware ADS-B
Fri 03:38:28 PM -27.0920 -51.0330 45° Northeast 479 551 35,000  Level FlightAware ADS-B
Fri 03:39:04 PM -27.0360 -50.9690 46° Northeast 477 549 35,000  Level FlightAware ADS-B
Fri 03:39:50 PM -26.9630 -50.8880 45° Northeast 479 551 35,000 -45 Level FlightAware ADS-B
Fri 03:41:16 PM -26.8750 -50.7880 45° Northeast 483 556 34,900  Descending FlightAware ADS-B
Fri 03:41:55 PM -26.7660 -50.6650 45° Northeast 489 563 35,000 73 Climbing FlightAware ADS-B
Fri 03:42:38 PM -26.6970 -50.5870 45° Northeast 493 567 35,000  Level FlightAware ADS-B
Fri 03:43:20 PM -26.6400 -50.5240 45° Northeast 494 568 35,000 70 Level FlightAware ADS-B
Fri 03:44:04 PM -26.5820 -50.4070 61° Northeast 523 602 35,100  Climbing FlightAware ADS-B
Fri 03:44:44 PM -26.5290 -50.3110 58° Northeast 521 600 35,000 -75 Descending FlightAware ADS-B
Fri 03:45:24 PM -26.4820 -50.2140 62° Northeast 532 612 35,000  Level FlightAware ADS-B
Fri 03:46:27 PM -26.4650 -50.1720 66° East 531 611 35,000  Level FlightAware ADS-B
Fri 03:47:15 PM -26.3730 -49.9500 65° Northeast 522 601 35,000  Level FlightAware ADS-B
Fri 03:47:54 PM -26.3290 -49.8450 65° Northeast 519 597 35,000  Level FlightAware ADS-B
Fri 03:48:30 PM -26.2920 -49.7580 65° Northeast 518 596 35,000  Level FlightAware ADS-B
Fri 03:49:16 PM -26.2470 -49.6500 65° Northeast 517 595 35,000  Level FlightAware ADS-B
Fri 03:50:00 PM -26.2040 -49.5480 65° Northeast 516 594 35,000  Level FlightAware ADS-B
Fri 03:50:38 PM -26.1670 -49.4510 67° East 526 605 35,000  Level FlightAware ADS-B
Fri 03:51:22 PM -26.1460 -49.3380 78° East 541 623 35,000  Level FlightAware ADS-B
Fri 03:52:20 PM -26.1420 -49.1680 89° East 547 629 35,000  Level FlightAware ADS-B
Fri 03:53:13 PM -26.1470 -49.0210 92° East 547 629 35,000  Level FlightAware ADS-B
Fri 03:53:53 PM -26.1500 -48.9090 92° East 540 621 35,000  Level FlightAware ADS-B
Fri 03:54:38 PM -26.1540 -48.7850 92° East 535 616 35,000  Level FlightAware ADS-B
Fri 03:55:18 PM -26.1500 -48.6800 88° East 526 605 35,000  Level FlightAware ADS-B
Fri 03:56:03 PM -26.1280 -48.5680 78° East 519 597 35,000  Level FlightAware ADS-B
Fri 03:56:40 PM -26.1110 -48.4930 76° East 517 595 35,000  Level FlightAware ADS-B
Fri 03:57:24 PM -26.0720 -48.3530 73° East 507 583 35,000  Level FlightAware ADS-B
Fri 03:58:07 PM -26.0100 -48.2710 50° Northeast 493 567 35,000  Level FlightAware ADS-B
Fri 03:58:52 PM -25.9430 -48.1860 49° Northeast 491 565 35,000  Level FlightAware ADS-B
Fri 03:59:32 PM -25.8830 -48.1080 49° Northeast 492 566 35,000  Level FlightAware ADS-B
Fri 04:00:59 PM -25.8020 -48.0050 49° Northeast 494 568 35,000  Level FlightAware ADS-B
Fri 04:01:55 PM -25.6750 -47.8430 49° Northeast 496 571 35,000  Level FlightAware ADS-B
Fri 04:02:37 PM -25.6050 -47.7520 50° Northeast 498 573 35,000  Level FlightAware ADS-B
Fri 04:03:12 PM -25.5550 -47.6900 48° Northeast 499 574 35,000  Level FlightAware ADS-B
Fri 04:04:00 PM -25.4790 -47.5930 49° Northeast 499 574 35,000  Level FlightAware ADS-B
Fri 04:04:42 PM -25.4150 -47.5140 48° Northeast 493 567 35,000  Level FlightAware ADS-B
Fri 04:05:22 PM -25.3600 -47.4550 44° Northeast 490 564 35,000  Level FlightAware ADS-B
Fri 04:06:04 PM -25.2810 -47.3690 45° Northeast 493 567 35,000  Level FlightAware ADS-B
Fri 04:06:46 PM -25.3600 -47.4550 225° Southwest 491 565 35,000  Level FlightAware ADS-B
Fri 04:07:41 PM -25.3010 -47.3910 44° Northeast 493 567 35,000  Level FlightAware ADS-B
Fri 04:08:21 PM -25.2430 -47.3280 45° Northeast 494 568 35,000  Level FlightAware ADS-B
Fri 04:08:36 PM -25.2250 -47.3080 45° Northeast 494 568 35,000  Level FlightAware ADS-B
Fri 04:09:06 PM -25.1880 -47.2670 45° Northeast 495 570 35,000  Level FlightAware ADS-B
Fri 04:09:42 PM -25.1480 -47.2230 45° Northeast 495 570 35,000 -2,025 Level FlightAware ADS-B
Fri 04:10:26 PM -24.8360 -46.9590 38° Northeast 485 558 32,300 -2,022 Descending FlightAware ADS-B
Fri 04:11:11 PM -24.7570 -46.8940 37° Northeast 485 558 32,000 -276 Descending FlightAware ADS-B
Fri 04:11:53 PM -24.6860 -46.8360 37° Northeast 480 552 31,900 -614 Descending FlightAware ADS-B
Fri 04:12:39 PM -24.5910 -46.7580 37° Northeast 473 544 31,100 -1,047 Descending FlightAware ADS-B
Fri 04:13:19 PM -24.5210 -46.7010 37° Northeast 470 541 30,400 -1,000 Descending FlightAware ADS-B
Fri 04:13:57 PM -24.4570 -46.6490 36° Northeast 455 524 29,800 -837 Descending FlightAware ADS-B
Fri 04:14:45 PM -24.3770 -46.5830 37° Northeast 420 483 29,200 -750 Descending FlightAware ADS-B
Fri 04:15:25 PM -24.3160 -46.5340 36° Northeast 395 455 28,700 -878 Descending FlightAware ADS-B
Fri 04:16:07 PM -24.2580 -46.4870 36° Northeast 378 435 28,000 -1,446 Descending FlightAware ADS-B
Fri 04:16:48 PM -24.2010 -46.4400 37° Northeast 361 415 26,700 -2,025 Descending FlightAware ADS-B
Fri 04:17:27 PM -24.1490 -46.3980 36° Northeast 348 400 25,300 -2,241 Descending FlightAware ADS-B
Fri 04:18:11 PM -24.0930 -46.3530 36° Northeast 338 389 23,600 -2,659 Descending FlightAware ADS-B
Fri 04:18:55 PM -24.0360 -46.3070 36° Northeast 348 400 21,400 -2,302 Descending FlightAware ADS-B
Fri 04:19:37 PM -23.9800 -46.2710 30° Northeast 319 367 20,300 -1,636 Descending FlightAware ADS-B
Fri 04:20:01 PM -23.9460 -46.2770 351° North 298 343 19,600 -1,543 Descending FlightAware ADS-B
Fri 04:20:47 PM -23.8860 -46.3000 341° North 295 339 18,500 -1,500 Descending FlightAware ADS-B
Fri 04:21:29 PM -23.8320 -46.3200 341° North 295 339 17,400 -1,395 Descending FlightAware ADS-B
Fri 04:22:13 PM -23.7760 -46.3400 342° North 289 333 16,500 -1,186 Descending FlightAware ADS-B
Fri 04:22:55 PM -23.7230 -46.3600 341° North 283 326 15,700 -1,215 Descending FlightAware ADS-B
Fri 04:23:32 PM -23.6780 -46.3760 342° North 276 318 14,900 -1,286 Descending FlightAware ADS-B
Fri 04:24:19 PM -23.6200 -46.3980 341° North 272 313 13,900 -1,241 Descending FlightAware ADS-B
Fri 04:24:59 PM -23.5730 -46.4140 343° North 262 302 13,100 -1,188 Descending FlightAware ADS-B
Fri 04:25:55 PM -23.5100 -46.4380 341° North 250 288 12,000 -913 Descending FlightAware ADS-B
Fri 04:26:31 PM -23.4690 -46.4540 340° North 255 293 11,700 -977 Descending FlightAware ADS-B
Fri 04:27:21 PM -23.4140 -46.4740 342° North 251 289 10,600 -1,109 Descending FlightAware ADS-B
Fri 04:28:03 PM -23.3670 -46.4900 343° North 240 276 10,000 -545 Descending FlightAware ADS-B
Fri 04:28:27 PM -23.3420 -46.4970 346° North 245 282 10,000  Level FlightAware ADS-B
Fri 04:28:55 PM -23.3130 -46.4840 22° Northeast 253 291 10,000  Level FlightAware ADS-B
Fri 04:29:35 PM -23.2800 -46.4510 43° Northeast 227 261 10,000 -300 Level FlightAware ADS-B
Fri 04:29:55 PM -23.2640 -46.4360 41° Northeast 226 260 9,700 -1,000 Descending FlightAware ADS-B
Fri 04:30:17 PM -23.2510 -46.4160 55° Northeast 245 282 9,300 -1,021 Descending FlightAware ADS-B
Fri 04:31:29 PM -23.2240 -46.3340 70° East 239 275 8,100 -964 Descending FlightAware ADS-B
Fri 04:32:09 PM -23.2210 -46.2900 86° East 256 295 7,500 -842 Descending FlightAware ADS-B
Fri 04:32:26 PM -23.2280 -46.2720 113° Southeast 253 291 7,300 -1,000 Descending FlightAware ADS-B
Fri 04:33:09 PM -23.2600 -46.2260 127° Southeast 240 276 6,500 -1,158 Descending FlightAware ADS-B
Fri 04:33:23 PM -23.2760 -46.2190 158° South 236 272 6,200 -1,091 Descending FlightAware ADS-B
Fri 04:33:53 PM -23.3090 -46.2070 162° South 240 276 5,700 -857 Descending FlightAware ADS-B
Fri 04:34:19 PM -23.3340 -46.1970 160° South 226 260 5,400 -655 Descending FlightAware ADS-B
Fri 04:34:48 PM -23.3590 -46.2050 196° South 190 219 5,100 -471 Descending FlightAware ADS-B
Fri 04:35:10 PM -23.3660 -46.2220 246° West 183 211 5,000 -120 Descending FlightAware ADS-B
Fri 04:35:38 PM -23.3740 -46.2460 250° West 184 212 5,000  Level FlightAware ADS-B
Fri 04:35:56 PM -23.3780 -46.2620 255° West 181 208 5,000  Level FlightAware ADS-B
Fri 04:36:24 PM -23.3850 -46.2860 252° West 176 203 5,000  Level FlightAware ADS-B
Fri 04:36:37 PM -23.3870 -46.2960 258° West 175 201 5,000  Level FlightAware ADS-B
Fri 04:37:01 PM -23.3930 -46.3170 253° West 160 184 5,000 -444 Level FlightAware ADS-B
Fri 04:37:31 PM -23.3990 -46.3390 253° West 146 168 4,600 -700 Descending FlightAware ADS-B
Fri 04:38:01 PM -23.4040 -46.3600 255° West 147 169 4,300 -625 Descending FlightAware ADS-B
Fri 04:38:19 PM -23.4070 -46.3690 250° West 145 167 4,100 -828 Descending FlightAware ADS-B
Fri 04:38:59 PM -23.4160 -46.4020 253° West 139 160 3,500 -783 Descending FlightAware ADS-B
Fri 04:39:28 PM -23.4210 -46.4230 255° West 144 166 3,200 -769 Descending FlightAware ADS-B
Fri 04:39:38 PM -23.4230 -46.4290 250° West 142 163 3,000 -732 Descending FlightAware ADS-B
Fri 04:40:09 PM -23.4290 -46.4490 252° West 144 166 2,700 -453 Descending FlightAware ADS-B
Fri 04:40:31 PM -23.4300 -46.4550 260° West 145 167 2,600 -273 Descending FlightAware ADS-B
Fri 04:40:59 PM -23.4370 -46.4790 252° West 63 72 -5,571 Descending FlightAware ADS-B
Fri 04:41:21 PM -23.4370 -46.4820 270° West 13 15  Level FlightAware ADS-B
Fri 04:41:58 PM -23.4360 -46.4830 317° Northwest 5 6  Level FlightAware ADS-B
Fri 04:42:29 PM -23.4340 -46.4830 360° North 10 12  Level FlightAware ADS-B
Fri 04:42:56 PM -23.4330 -46.4840 317° Northwest 7 8  Level FlightAware ADS-B
Fri 04:43:24 PM -23.4320 -46.4840 360° North 14 16  Level FlightAware ADS-B
Fri 04:43:39 PM -23.4310 -46.4840 360° North 18 21  Level FlightAware ADS-B
Fri 04:44:18 PM -23.4290 -46.4850 335° Northwest 10 12  Level FlightAware ADS-B
Fri 04:47:00 PM -23.4321 -46.4695 102° East  Level Estimated

Login

Don't have an account? Register now (free) for customized features, flight alerts, and more!